Terminal Aerodrome Forecast
Issued by NWS Louisville, KY

Home | Current Version | Previous Version | Text Only | Print | Product List | Glossary On
Versions: 1 2 3 4 5 6 7 8 9 10 11 12 13 14 15 16 17
000
FTUS43 KLMK 312300
TAFSDF
TAF
KSDF 312320Z 0100/0206 VRB03KT P6SM OVC100
     FM011200 14007KT P6SM OVC100
     FM011700 17011KT 6SM -RA BKN040
     FM012000 18011G21KT 5SM -RA OVC025
     FM020000 24012G22KT 6SM -RA OVC021=

USA.gov is the U.S. government's official web portal to all federal, state and local government web resources and services.